メインページ
METAR-TAF:

METAR-TAF

空港 :

マッカラン国際空港

ラスベガス, ネバダ州, アメリカ合衆国

緯度: 36-04-44N, 経度: 115-09-19W, 海抜: 663m

現時点の気象観測

当レポートは1時間3分前の22:56(UTC)に作成
無風
気温 42°C
湿度 18%
気圧 1011 hPa
視程: 16.1km
高度12000ftの雲はほとんどない
高度20000ftの雲は散在している

METAR: KLAS 162256Z 00000KT 10SM FEW120 SCT200 42/13 A2984 RMK AO2 SLP071 CB DSNT N T04220128

時間: 16:59 (23:59 UTC)

予報

当レポートは39分前の23:20(UTC)に作成
予報は17日の 00時(UTC)から 18日の 06時(UTC)まで有効
変向風 5kt
視程: 10km
高度12000ftの雲はほとんどない
高度25000ftの雲は散在している
17日の 0300時(UTC)から
南/南東の風 10kt
視程: 10km
高度15000ftの雲は散在している
高度25000ftの雲は散在している
17日の 1100時(UTC)から
南/南西の風 6kt
視程: 10km
高度15000ftの雲は散在している
高度25000ftの雲は散在している
17日の 1600時(UTC)から
南/南東の風 8kt
視程: 10km
高度15000ftの雲は散在している
高度25000ftの雲は散在している
18日の 0400時(UTC)から
南/南西の風 7kt
視程: 10km
高度15000ftの雲は散在している
高度25000ftの雲は散在している

TAF: KLAS 162320Z 1700/1806 VRB05KT P6SM FEW120 SCT250 FM170300 16010KT P6SM SCT150 SCT250 FM171100 20006KT P6SM SCT150 SCT250 FM171600 16008KT P6SM SCT150 SCT250 FM180400 20007KT P6SM SCT150 SCT250

4,000以上の空港の気象観測と天気予報(METAR報とTAF報)

利用可能な観測所は地図上に黄色い丸と赤い丸で示す。

丸の上にカーソルを重ねると観測所名を参照できる。

次にクリックすると気象観測と天気予報を参照できる。

マップの切り替え:黒色「×」印の緑ボタンをクリックして拡大、「-」印の緑ボタンをクリックして縮小、緑色の三角印をクリックして隣りの地図に切り替え


METAR-TAF: